This is the latest recevied weather packets stored in our database for station/object KC8JWT. If no packets are shown the sender has not sent any weather packets the latest 1 day(s).
| Time | Temp. | Humidity | Pressure | Rain* | Wind** | Luminosity | Snow |
|---|---|---|---|---|---|---|---|
| 1778092991 | 16.11° C | 83% | 1011.3 hPa | 0 mm | - | 374 W/m² | - |
| 1778092688 | 16.11° C | 82% | 1011.5 hPa | 0 mm | - | 340 W/m² | - |
| 1778092383 | 16.11° C | 84% | 1011.3 hPa | 0 mm | - | 243 W/m² | - |
| 1778091173 | 16.67° C | 81% | 1011.3 hPa | 0 mm | - | 440 W/m² | - |
| 1778090262 | 15.56° C | 84% | 1011.5 hPa | 0 mm | - | 369 W/m² | - |
| 1778089959 | 15.56° C | 87% | 1011.4 hPa | 0 mm | - | 314 W/m² | - |
| 1778089353 | 15.56° C | 85% | 1011.5 hPa | 0 mm | - | 307 W/m² | - |
| 1778088141 | 15.56° C | 87% | 1011.5 hPa | 0 mm | - | 548 W/m² | - |
| 1778087839 | 15° C | 89% | 1011.2 hPa | 0 mm | - | 577 W/m² | - |
| 1778087536 | 14.44° C | 91% | 1011.3 hPa | 0 mm | - | 471 W/m² | - |
| 1778086930 | 13.33° C | 96% | 1011.7 hPa | 0 mm | - | 664 W/m² | - |
| 1778086325 | 12.78° C | 99% | 1011.6 hPa | 0 mm | - | 423 W/m² | - |
| 1778084807 | 11.67° C | 99% | 1011.8 hPa | 0 mm | - | 266 W/m² | - |
| 1778083596 | 11.11° C | 99% | 1011.9 hPa | 0 mm | - | 124 W/m² | - |
| 1778081247 | 10.56° C | 99% | 1010.7 hPa | 0 mm | - | 136 W/m² | - |
| 1778080036 | 10.56° C | 99% | 1010.7 hPa | 0 mm | - | 75 W/m² | - |
| 1778079430 | 10.56° C | 99% | 1010.2 hPa | 0 mm | - | 101 W/m² | - |
| 1778077312 | 10.56° C | 99% | 1009.9 hPa | 0 mm | - | 174 W/m² | - |
| 1778076102 | 10° C | 99% | 1009.6 hPa | 0 mm | - | 127 W/m² | - |
| 1778075799 | 10° C | 99% | 1009.6 hPa | 0 mm | - | 123 W/m² | - |
| 1778075495 | 10° C | 99% | 1009.5 hPa | 0 mm | - | 112 W/m² | - |
| 1778075192 | 10° C | 99% | 1009 hPa | 1.27 mm | - | 101 W/m² | - |
| 1778074585 | 10.56° C | 99% | 1008.9 hPa | 1.78 mm | - | 75 W/m² | - |
| 1778074282 | 10.56° C | 99% | 1008.7 hPa | 1.78 mm | - | 72 W/m² | - |
| 1778071860 | 15° C | 99% | 1007.5 hPa | 0 mm | - | 31 W/m² | - |
* Rain latest hour (hover to see other rain measurements)
** Current wind speed in m/s (hover to see current wind gust speed)